Time;durP1;ratioP1;P1;durP2;ratioP2;P2;SDS_P1;SDS_P2;PMS_P1;PMS_P2;Temp;Humidity;BMP_temperature;BMP_pressure;BME280_temperature;BME280_humidity;BME280_pressure;Samples;Min_cycle;Max_cycle;Signal;HPM_P1;HPM_P2
2020/12/30 00:00:11;;;;;;;3.10;2.90;;;;;;;2.36;70.51;99350.03;694782;28;22416;-63
2020/12/30 00:00:35;;;;;;;3.45;3.15;;;;;;;2.36;70.66;99344.69;692047;28;113585;-63
2020/12/30 00:00:56;;;;;;;3.45;3.15;;;;;;;2.35;70.66;99340.34;695385;28;19336;-63
2020/12/30 00:01:22;;;;;;;3.63;3.33;;;;;;;2.34;70.57;99342.19;695045;28;23477;-63
2020/12/30 00:01:43;;;;;;;3.75;3.45;;;;;;;2.35;70.56;99340.34;691291;28;138175;-62
2020/12/30 00:02:04;;;;;;;3.40;3.20;;;;;;;2.32;70.57;99346.84;695147;28;22361;-63
2020/12/30 00:02:26;;;;;;;3.30;3.10;;;;;;;2.33;70.59;99351.16;696301;28;23140;-62
2020/12/30 00:02:48;;;;;;;3.55;3.35;;;;;;;2.34;70.64;99338.69;693257;28;69417;-62
2020/12/30 00:03:10;;;;;;;3.38;3.17;;;;;;;2.34;70.57;99344.84;694851;28;22413;-62
2020/12/30 00:03:31;;;;;;;3.00;2.80;;;;;;;2.35;70.61;99343.00;694094;28;44401;-63
2020/12/30 00:03:52;;;;;;;3.05;2.85;;;;;;;2.36;70.63;99339.38;695308;28;22172;-63
2020/12/30 00:04:14;;;;;;;3.38;3.08;;;;;;;2.36;70.57;99341.22;693894;28;45183;-65
2020/12/30 00:04:35;;;;;;;3.33;3.03;;;;;;;2.36;70.66;99346.53;695322;28;23533;-63
2020/12/30 00:04:57;;;;;;;4.45;3.10;;;;;;;2.37;70.56;99340.19;694250;28;46465;-62
2020/12/30 00:05:18;;;;;;;3.58;3.28;;;;;;;2.36;70.61;99338.53;694800;28;21380;-62
2020/12/30 00:05:40;;;;;;;3.40;3.20;;;;;;;2.34;70.61;99338.69;693951;28;46261;-62
2020/12/30 00:06:04;;;;;;;3.22;3.03;;;;;;;2.33;70.63;99337.84;694982;28;23360;-62
2020/12/30 00:06:26;;;;;;;3.28;3.08;;;;;;;2.33;70.70;99340.50;691905;28;115140;-62
2020/12/30 00:06:47;;;;;;;3.30;3.10;;;;;;;2.33;70.59;99335.19;695312;28;22392;-62
2020/12/30 00:07:09;;;;;;;3.15;2.95;;;;;;;2.32;70.74;99338.00;693859;28;46377;-62
2020/12/30 00:07:31;;;;;;;3.40;3.17;;;;;;;2.33;70.57;99342.34;691834;28;21520;-63
2020/12/30 00:07:52;;;;;;;3.85;3.55;;;;;;;2.33;70.59;99334.34;691446;28;68367;-62
2020/12/30 00:08:14;;;;;;;3.80;3.50;;;;;;;2.30;70.61;99332.00;692181;28;22235;-64
2020/12/30 00:08:36;;;;;;;3.70;3.40;;;;;;;2.31;70.66;99333.69;692995;28;972;-64
2020/12/30 00:08:57;;;;;;;4.00;3.60;;;;;;;2.31;70.67;99339.00;691231;28;43149;-63
2020/12/30 00:09:18;;;;;;;3.78;3.47;;;;;;;2.31;70.66;99337.19;692531;28;22432;-63
2020/12/30 00:09:39;;;;;;;4.25;3.35;;;;;;;2.31;70.69;99337.19;694107;28;45258;-63
2020/12/30 00:10:01;;;;;;;3.65;3.35;;;;;;;2.30;70.67;99337.34;694370;28;22402;-63
2020/12/30 00:10:23;;;;;;;4.50;3.38;;;;;;;2.33;70.60;99340.50;696041;28;23344;-63
2020/12/30 00:10:44;;;;;;;4.85;3.45;;;;;;;2.35;70.70;99337.69;695798;28;4376;-63
2020/12/30 00:11:06;;;;;;;4.22;3.70;;;;;;;2.34;70.54;99339.53;695139;28;23523;-63
2020/12/30 00:11:27;;;;;;;3.97;3.67;;;;;;;2.34;70.60;99338.69;694794;28;22427;-63
2020/12/30 00:11:49;;;;;;;3.78;3.47;;;;;;;2.33;70.52;99335.19;694731;28;22482;-63
2020/12/30 00:12:10;;;;;;;3.80;3.50;;;;;;;2.33;70.70;99340.50;694410;28;35481;-64
2020/12/30 00:12:31;;;;;;;3.70;3.40;;;;;;;2.32;70.53;99336.19;694641;28;22461;-62
2020/12/30 00:12:53;;;;;;;3.80;3.40;;;;;;;2.33;70.54;99337.00;695958;28;24859;-63
2020/12/30 00:13:14;;;;;;;3.50;3.20;;;;;;;2.30;70.52;99337.34;695006;28;22389;-63
2020/12/30 00:13:36;;;;;;;3.85;3.35;;;;;;;2.31;70.49;99339.84;693578;28;45249;-64
2020/12/30 00:13:57;;;;;;;3.55;3.25;;;;;;;2.29;70.49;99336.50;694937;28;22417;-64
2020/12/30 00:14:18;;;;;;;3.63;3.33;;;;;;;2.29;70.54;99335.69;694527;28;24367;-63
2020/12/30 00:14:40;;;;;;;3.90;3.60;;;;;;;2.29;70.59;99338.34;694081;28;44383;-63
2020/12/30 00:15:02;;;;;;;3.72;3.42;;;;;;;2.31;70.55;99341.69;695453;28;842;-63
2020/12/30 00:15:23;;;;;;;3.80;3.50;;;;;;;2.32;70.64;99338.84;695347;28;46147;-63
2020/12/30 00:15:44;;;;;;;3.60;3.30;;;;;;;2.32;70.58;99338.84;694332;28;46476;-62
2020/12/30 00:16:05;;;;;;;3.55;3.25;;;;;;;2.32;70.57;99343.34;694928;28;21290;-63
2020/12/30 00:16:27;;;;;;;3.53;3.22;;;;;;;2.32;70.66;99338.84;695194;28;22544;-63
2020/12/30 00:16:48;;;;;;;4.47;3.50;;;;;;;2.33;70.58;99348.50;693690;28;45238;-63
2020/12/30 00:17:10;;;;;;;5.65;3.40;;;;;;;2.33;70.62;99339.69;694804;28;22370;-64
2020/12/30 00:17:31;;;;;;;4.40;3.20;;;;;;;2.32;70.57;99341.53;694774;28;21509;-63
2020/12/30 00:17:53;;;;;;;3.35;3.15;;;;;;;2.31;70.61;99342.50;695362;28;46379;-63
2020/12/30 00:18:14;;;;;;;3.77;3.50;;;;;;;2.29;70.57;99338.34;695066;28;23295;-63
2020/12/30 00:18:35;;;;;;;3.60;3.30;;;;;;;2.30;70.53;99348.00;694483;28;45894;-62
2020/12/30 00:18:57;;;;;;;3.72;3.42;;;;;;;2.29;70.63;99341.00;695207;28;20437;-63
2020/12/30 00:19:18;;;;;;;3.63;3.33;;;;;;;2.31;70.53;99347.00;695086;28;23404;-64
2020/12/30 00:19:40;;;;;;;3.63;3.33;;;;;;;2.31;70.58;99345.16;695244;28;23509;-63
2020/12/30 00:20:01;;;;;;;3.55;3.30;;;;;;;2.32;70.61;99338.84;693464;28;46338;-63
2020/12/30 00:20:22;;;;;;;3.40;3.10;;;;;;;2.31;70.54;99341.69;695962;28;22207;-64
2020/12/30 00:20:43;;;;;;;3.55;3.25;;;;;;;2.33;70.58;99342.34;694384;28;46321;-63
2020/12/30 00:21:07;;;;;;;4.22;3.60;;;;;;;2.32;70.40;99344.19;695148;28;17427;-64
2020/12/30 00:21:28;;;;;;;3.90;3.30;;;;;;;2.33;70.65;99353.00;693348;28;67496;-63
2020/12/30 00:21:49;;;;;;;3.20;3.00;;;;;;;2.33;70.60;99339.69;694297;28;46268;-64
2020/12/30 00:22:10;;;;;;;3.42;3.22;;;;;;;2.30;70.56;99337.34;695043;28;20319;-65
2020/12/30 00:22:32;;;;;;;3.45;3.20;;;;;;;2.28;70.51;99336.66;695015;28;22354;-64
2020/12/30 00:22:53;;;;;;;4.63;3.20;;;;;;;2.33;70.54;99345.84;695868;28;24342;-65
2020/12/30 00:23:15;;;;;;;3.40;3.10;;;;;;;2.33;70.59;99339.69;694044;28;44398;-65
2020/12/30 00:23:37;;;;;;;3.67;3.38;;;;;;;2.32;70.47;99346.84;695211;28;23469;-65
2020/12/30 00:23:58;;;;;;;3.72;3.42;;;;;;;2.28;70.49;99340.16;694339;28;41729;-65
2020/12/30 00:24:19;;;;;;;3.72;3.30;;;;;;;2.33;70.58;99345.84;694314;28;34419;-64
2020/12/30 00:24:41;;;;;;;3.83;3.53;;;;;;;2.31;70.62;99344.34;695202;28;21524;-65
2020/12/30 00:25:02;;;;;;;4.40;3.58;;;;;;;2.35;70.55;99345.69;694154;28;45149;-65
2020/12/30 00:25:26;;;;;;;3.75;3.35;;;;;;;2.34;70.47;99344.03;696179;28;22337;-63
2020/12/30 00:25:47;;;;;;;3.70;3.42;;;;;;;2.33;70.44;99345.00;693426;28;69445;-64
2020/12/30 00:26:08;;;;;;;3.50;3.30;;;;;;;2.32;70.49;99344.19;694206;28;46459;-64
2020/12/30 00:26:30;;;;;;;3.78;3.50;;;;;;;2.32;70.46;99343.34;695086;28;22732;-63
2020/12/30 00:26:51;;;;;;;3.53;3.22;;;;;;;2.33;70.46;99345.84;692124;28;23257;-63
2020/12/30 00:27:12;;;;;;;3.67;3.38;;;;;;;2.32;70.51;99349.50;691221;28;46394;-63
2020/12/30 00:27:34;;;;;;;3.55;3.30;;;;;;;2.31;70.52;99344.34;692105;28;22185;-64
2020/12/30 00:27:56;;;;;;;3.90;3.60;;;;;;;2.31;70.48;99344.34;692050;28;45239;-64
2020/12/30 00:28:17;;;;;;;4.57;3.70;;;;;;;2.32;70.56;99343.34;692034;28;22400;-63
2020/12/30 00:28:38;;;;;;;4.07;3.50;;;;;;;2.33;70.50;99348.50;692115;28;44390;-63
2020/12/30 00:28:59;;;;;;;3.63;3.30;;;;;;;2.32;70.43;99338.00;695178;28;21403;-64
2020/12/30 00:29:21;;;;;;;3.85;3.47;;;;;;;2.31;70.50;99339.84;694968;28;22377;-64
2020/12/30 00:29:42;;;;;;;3.58;3.28;;;;;;;2.32;70.45;99349.50;692332;28;10180;-63
2020/12/30 00:30:07;;;;;;;4.93;3.38;;;;;;;2.31;70.33;99342.50;691752;28;23363;-63
2020/12/30 00:30:28;;;;;;;4.60;3.20;;;;;;;2.33;70.48;99340.50;688507;28;115150;-62
2020/12/30 00:30:49;;;;;;;3.22;3.03;;;;;;;2.34;70.40;99344.84;687429;28;942;-62
2020/12/30 00:31:11;;;;;;;4.05;3.40;;;;;;;2.34;70.41;99347.53;687921;28;22372;-62
2020/12/30 00:31:32;;;;;;;4.13;3.60;;;;;;;2.34;70.44;99339.53;688581;28;46565;-62
2020/12/30 00:31:54;;;;;;;4.32;3.47;;;;;;;2.36;70.45;99343.88;691824;28;2302;-62
2020/12/30 00:32:15;;;;;;;3.65;3.35;;;;;;;2.36;70.49;99343.88;690056;28;45237;-62
2020/12/30 00:32:36;;;;;;;3.70;3.40;;;;;;;2.35;70.34;99345.69;691422;28;22491;-62
2020/12/30 00:32:58;;;;;;;3.70;3.35;;;;;;;2.37;70.44;99343.72;695075;28;21546;-65
2020/12/30 00:33:19;;;;;;;3.72;3.35;;;;;;;2.37;70.33;99348.19;691127;28;43657;-65
2020/12/30 00:33:40;;;;;;;3.30;3.10;;;;;;;2.35;70.27;99340.34;691839;28;21518;-65
2020/12/30 00:34:02;;;;;;;3.50;3.22;;;;;;;2.35;70.30;99351.00;692201;28;19899;-64
2020/12/30 00:34:23;;;;;;;4.40;3.30;;;;;;;2.34;70.35;99341.38;692234;28;21520;-65
2020/12/30 00:34:45;;;;;;;4.40;3.40;;;;;;;2.34;70.45;99338.69;691216;28;45953;-64
2020/12/30 00:35:07;;;;;;;3.88;3.40;;;;;;;2.34;70.32;99344.84;693199;28;858;-65
2020/12/30 00:35:29;;;;;;;4.40;3.38;;;;;;;2.34;70.34;99347.53;695872;28;1322;-64
2020/12/30 00:35:54;;;;;;;4.53;3.22;;;;;;;2.32;70.33;99346.00;694404;28;38843;-64
2020/12/30 00:36:16;;;;;;;3.60;3.30;;;;;;;2.36;70.29;99350.03;695044;28;23624;-64
2020/12/30 00:36:38;;;;;;;3.55;3.25;;;;;;;2.37;70.26;99342.84;693310;28;68135;-63
2020/12/30 00:36:59;;;;;;;4.15;3.40;;;;;;;2.37;70.30;99343.72;694173;28;45278;-64
2020/12/30 00:37:21;;;;;;;3.40;3.10;;;;;;;2.36;70.34;99342.03;695849;28;1365;-63
2020/12/30 00:37:44;;;;;;;4.85;3.22;;;;;;;2.37;70.16;99348.19;691172;28;34028;-61
2020/12/30 00:38:05;;;;;;;3.60;3.30;;;;;;;2.37;70.41;99348.19;689335;28;59251;-61
2020/12/30 00:38:27;;;;;;;4.13;3.72;;;;;;;2.32;70.34;99336.19;690861;28;22401;-61
2020/12/30 00:38:48;;;;;;;3.60;3.30;;;;;;;2.39;70.24;99346.22;689924;28;44398;-61
2020/12/30 00:39:10;;;;;;;3.58;3.28;;;;;;;2.39;70.25;99344.38;690751;28;23497;-61
2020/12/30 00:39:31;;;;;;;3.75;3.45;;;;;;;2.41;70.22;99349.56;691257;28;41465;-61
2020/12/30 00:39:52;;;;;;;3.80;3.50;;;;;;;2.40;70.18;99343.41;694857;28;21556;-60
2020/12/30 00:40:14;;;;;;;3.70;3.40;;;;;;;2.41;70.23;99345.03;695666;28;22385;-59
2020/12/30 00:40:35;;;;;;;3.58;3.30;;;;;;;2.41;70.17;99350.38;694218;28;44467;-62
2020/12/30 00:40:56;;;;;;;3.40;3.20;;;;;;;2.40;70.23;99345.19;695001;28;21538;-63
2020/12/30 00:41:18;;;;;;;3.40;3.20;;;;;;;2.42;70.12;99345.91;694316;28;44396;-63
2020/12/30 00:41:39;;;;;;;3.60;3.30;;;;;;;2.43;70.11;99359.06;695179;28;23516;-62
2020/12/30 00:42:00;;;;;;;3.70;3.40;;;;;;;2.44;70.10;99350.06;691754;28;22378;-62
2020/12/30 00:42:22;;;;;;;3.88;3.58;;;;;;;2.44;70.10;99347.41;691391;28;23487;-62
2020/12/30 00:42:44;;;;;;;3.72;3.42;;;;;;;2.41;70.01;99345.03;692266;28;44408;-63
2020/12/30 00:43:05;;;;;;;5.07;3.65;;;;;;;2.44;70.06;99347.41;691133;28;45233;-62
2020/12/30 00:43:26;;;;;;;4.25;3.55;;;;;;;2.45;69.94;99348.25;692167;28;23481;-60
2020/12/30 00:43:48;;;;;;;3.70;3.40;;;;;;;2.44;69.94;99346.56;693073;28;16601;-62
2020/12/30 00:44:09;;;;;;;3.53;3.33;;;;;;;2.41;69.92;99345.03;694250;28;46333;-60
2020/12/30 00:44:30;;;;;;;3.75;3.45;;;;;;;2.40;69.88;99346.06;695178;28;22958;-63
2020/12/30 00:44:52;;;;;;;3.80;3.40;;;;;;;2.41;69.94;99347.72;694503;28;11748;-62
2020/12/30 00:45:14;;;;;;;3.58;3.28;;;;;;;2.40;69.94;99353.19;691146;28;46313;-60
2020/12/30 00:45:35;;;;;;;3.60;3.30;;;;;;;2.39;69.99;99351.56;691149;28;44567;-65
2020/12/30 00:45:57;;;;;;;3.70;3.40;;;;;;;2.39;70.00;99351.56;692061;28;22339;-63
2020/12/30 00:46:18;;;;;;;3.70;3.40;;;;;;;2.39;69.88;99351.56;692060;28;21554;-65
2020/12/30 00:46:39;;;;;;;3.40;3.10;;;;;;;2.39;69.88;99349.72;689203;28;22326;-65
2020/12/30 00:47:01;;;;;;;3.80;3.40;;;;;;;2.37;69.91;99354.38;689619;28;22208;-62
2020/12/30 00:47:22;;;;;;;4.13;3.45;;;;;;;2.37;69.91;99351.72;690302;28;46307;-64
2020/12/30 00:47:44;;;;;;;3.97;3.47;;;;;;;2.36;69.87;99352.69;691607;28;46329;-62
2020/12/30 00:48:05;;;;;;;3.58;3.28;;;;;;;2.33;69.93;99342.34;692102;28;22478;-61
2020/12/30 00:48:27;;;;;;;4.03;3.72;;;;;;;2.37;69.90;99348.19;692900;28;1224;-61
2020/12/30 00:48:49;;;;;;;3.80;3.50;;;;;;;2.33;69.89;99350.34;688955;28;22209;-61
2020/12/30 00:49:10;;;;;;;3.70;3.50;;;;;;;2.33;69.88;99340.50;686023;28;40782;-63
2020/12/30 00:49:32;;;;;;;3.78;3.50;;;;;;;2.32;69.92;99346.84;688023;28;40126;-63
2020/12/30 00:49:53;;;;;;;3.40;3.20;;;;;;;2.30;69.99;99348.84;688900;28;23809;-63
2020/12/30 00:50:14;;;;;;;3.47;3.10;;;;;;;2.29;70.00;99347.16;684960;28;10214;-61
2020/12/30 00:50:38;;;;;;;4.15;3.20;;;;;;;2.23;70.01;99344.31;683567;28;67507;-63
2020/12/30 00:50:59;;;;;;;3.47;3.20;;;;;;;2.26;70.09;99358.13;686637;28;46215;-63
2020/12/30 00:51:21;;;;;;;3.80;3.40;;;;;;;2.25;70.01;99351.13;689341;28;22721;-63
2020/12/30 00:51:48;;;;;;;3.92;3.47;;;;;;;2.24;70.06;99354.81;684493;28;69504;-63
2020/12/30 00:52:09;;;;;;;4.03;3.40;;;;;;;2.26;70.10;99352.81;682815;28;139020;-62
2020/12/30 00:52:37;;;;;;;3.50;3.20;;;;;;;2.26;70.19;99349.31;684836;28;138052;-64
2020/12/30 00:53:04;;;;;;;3.75;3.45;;;;;;;2.26;70.15;99368.78;687497;28;59379;-65
2020/12/30 00:53:26;;;;;;;3.67;3.38;;;;;;;2.25;70.13;99359.13;689967;28;1025;-64
2020/12/30 00:53:48;;;;;;;3.50;3.30;;;;;;;2.24;70.09;99359.28;688559;28;46394;-64
2020/12/30 00:54:10;;;;;;;3.28;3.08;;;;;;;2.24;70.17;99357.47;689085;28;1235;-63
2020/12/30 00:54:32;;;;;;;3.75;3.35;;;;;;;2.22;70.17;99358.59;686923;28;15081;-64
2020/12/30 00:54:53;;;;;;;4.30;3.60;;;;;;;2.21;70.12;99363.09;685512;28;46336;-65
2020/12/30 00:55:37;;;;;;;3.58;3.38;;;;;;;2.21;70.12;99362.25;678204;28;137832;-62
2020/12/30 00:56:16;;;;;;;3.83;3.40;;;;;;;2.18;70.34;99363.41;688964;28;117969;-62
2020/12/30 00:56:38;;;;;;;3.78;3.50;;;;;;;2.20;70.23;99365.94;693680;28;46331;-62
2020/12/30 00:57:01;;;;;;;4.03;3.37;;;;;;;2.18;70.27;99355.44;695375;28;937;-62
2020/12/30 00:57:26;;;;;;;4.63;3.45;;;;;;;2.18;70.27;99363.41;693418;28;60153;-60
2020/12/30 00:57:49;;;;;;;3.92;3.63;;;;;;;2.16;70.25;99363.56;695461;28;15929;-62
2020/12/30 00:58:12;;;;;;;4.15;3.75;;;;;;;2.17;70.29;99359.91;692596;28;86141;-62
2020/12/30 00:58:35;;;;;;;4.13;3.80;;;;;;;2.15;70.24;99361.91;688308;28;66673;-61
2020/12/30 00:58:56;;;;;;;3.85;3.55;;;;;;;2.19;70.29;99366.91;692448;28;2001;-62
2020/12/30 00:59:20;;;;;;;3.75;3.45;;;;;;;2.14;70.24;99362.06;688424;28;33512;-62
2020/12/30 00:59:45;;;;;;;3.45;3.20;;;;;;;2.19;70.27;99361.59;684896;28;156625;-62
2020/12/30 01:00:07;;;;;;;3.17;2.97;;;;;;;2.19;70.33;99361.59;684970;28;44139;-62
2020/12/30 01:00:47;;;;;;;3.08;2.88;;;;;;;2.17;70.34;99365.22;685319;28;137758;-62
2020/12/30 01:01:27;;;;;;;3.67;3.38;;;;;;;2.18;70.37;99360.75;688135;28;137686;-61
2020/12/30 01:02:09;;;;;;;3.75;3.45;;;;;;;2.17;70.24;99361.75;690104;28;137836;-61
2020/12/30 01:02:33;;;;;;;3.45;3.25;;;;;;;2.15;70.39;99371.72;689072;28;92194;-62
2020/12/30 01:02:54;;;;;;;4.75;3.53;;;;;;;2.14;70.22;99368.22;692496;28;23495;-63
2020/12/30 01:03:15;;;;;;;3.97;3.30;;;;;;;2.15;70.50;99364.56;692049;28;22673;-62
2020/12/30 01:03:36;;;;;;;4.03;3.30;;;;;;;2.16;70.30;99362.72;691598;28;38229;-63
2020/12/30 01:03:58;;;;;;;3.53;3.22;;;;;;;2.15;70.42;99366.41;691749;28;22475;-63
2020/12/30 01:04:20;;;;;;;3.28;2.97;;;;;;;2.13;70.31;99349.72;691964;28;44385;-63
2020/12/30 01:04:42;;;;;;;3.60;3.30;;;;;;;2.12;70.33;99364.03;695681;28;960;-62
2020/12/30 01:05:14;;;;;;;3.22;2.92;;;;;;;2.13;70.34;99363.03;693106;28;98667;-63
2020/12/30 01:05:35;;;;;;;3.40;3.10;;;;;;;2.11;70.42;99359.69;693263;28;67510;-62
2020/12/30 01:05:57;;;;;;;3.30;3.10;;;;;;;2.12;70.40;99361.38;694458;28;23385;-62
2020/12/30 01:06:18;;;;;;;3.38;3.17;;;;;;;2.11;70.43;99371.19;695305;28;15192;-62
2020/12/30 01:06:40;;;;;;;3.58;3.10;;;;;;;2.10;70.41;99366.00;695041;28;22190;-62
2020/12/30 01:07:02;;;;;;;4.10;3.40;;;;;;;2.10;70.53;99353.53;693097;28;67368;-62
2020/12/30 01:07:23;;;;;;;3.60;3.30;;;;;;;2.11;70.53;99363.19;694744;28;21548;-62
2020/12/30 01:07:44;;;;;;;3.30;3.10;;;;;;;2.12;70.47;99362.22;696074;28;8821;-61
2020/12/30 01:08:06;;;;;;;3.42;3.20;;;;;;;2.10;70.65;99364.19;693963;28;47889;-63
2020/12/30 01:08:27;;;;;;;3.13;2.92;;;;;;;2.10;70.48;99360.69;695742;28;6646;-62
2020/12/30 01:08:48;;;;;;;3.35;3.10;;;;;;;2.09;70.48;99367.03;694267;28;44187;-63
2020/12/30 01:09:10;;;;;;;3.50;3.20;;;;;;;2.08;70.61;99366.16;694992;28;22212;-63
2020/12/30 01:09:31;;;;;;;3.65;3.35;;;;;;;2.08;70.48;99368.81;694945;28;16525;-63
2020/12/30 01:09:53;;;;;;;3.70;3.40;;;;;;;2.02;70.59;99357.97;694074;28;42609;-62
2020/12/30 01:10:14;;;;;;;3.65;3.30;;;;;;;2.08;70.55;99366.16;695290;28;23329;-63
2020/12/30 01:10:35;;;;;;;3.53;3.22;;;;;;;2.07;70.51;99369.84;694873;28;21309;-63
2020/12/30 01:10:57;;;;;;;3.75;3.15;;;;;;;2.06;70.62;99359.34;694203;28;44558;-63
2020/12/30 01:11:24;;;;;;;3.40;3.10;;;;;;;2.08;70.52;99373.31;694990;28;23501;-63
2020/12/30 01:11:45;;;;;;;3.78;3.47;;;;;;;2.08;70.47;99374.16;692174;28;108090;-63
2020/12/30 01:12:07;;;;;;;4.00;3.70;;;;;;;2.06;70.47;99370.81;694784;28;23514;-63
2020/12/30 01:12:28;;;;;;;3.88;3.47;;;;;;;2.06;70.45;99370.00;695057;28;21598;-63
2020/12/30 01:12:50;;;;;;;3.50;3.20;;;;;;;2.05;70.47;99371.81;695383;28;46437;-62
2020/12/30 01:13:11;;;;;;;3.50;3.20;;;;;;;2.09;70.52;99373.16;694677;28;22064;-63
2020/12/30 01:13:32;;;;;;;3.20;2.97;;;;;;;2.09;70.48;99367.84;695038;28;16868;-62
2020/12/30 01:13:54;;;;;;;3.28;3.08;;;;;;;2.10;70.67;99372.19;694434;28;38369;-62
2020/12/30 01:14:15;;;;;;;3.17;2.97;;;;;;;2.11;70.62;99368.50;694936;28;23521;-63
2020/12/30 01:14:37;;;;;;;3.55;3.25;;;;;;;2.11;70.56;99371.19;694203;28;46540;-62
2020/12/30 01:14:58;;;;;;;3.50;3.20;;;;;;;2.12;70.53;99370.19;694128;28;46285;-62
2020/12/30 01:15:19;;;;;;;3.58;3.30;;;;;;;2.13;70.52;99381.69;696043;28;21424;-63
2020/12/30 01:15:41;;;;;;;3.40;3.20;;;;;;;2.11;70.43;99373.84;694776;28;22358;-63
2020/12/30 01:16:02;;;;;;;3.33;3.13;;;;;;;2.10;70.45;99368.66;694666;28;23497;-63
2020/12/30 01:16:24;;;;;;;3.60;3.30;;;;;;;2.11;70.40;99373.00;693934;28;45263;-63
2020/12/30 01:16:48;;;;;;;3.50;3.20;;;;;;;2.09;70.33;99369.69;694207;28;45331;-63
2020/12/30 01:17:10;;;;;;;3.60;3.20;;;;;;;2.10;70.46;99374.84;692393;28;92359;-63
2020/12/30 01:17:32;;;;;;;3.40;3.20;;;;;;;2.10;70.27;99374.84;710663;22;21547;31
2020/12/30 01:17:53;;;;;;;3.60;3.20;;;;;;;2.09;70.35;99381.16;689050;28;69089;-64
2020/12/30 01:18:14;;;;;;;3.50;3.20;;;;;;;2.06;70.34;99376.16;692171;28;23415;-65
2020/12/30 01:18:37;;;;;;;3.80;3.50;;;;;;;2.06;70.44;99370.81;692323;28;22371;-65
2020/12/30 01:18:58;;;;;;;3.53;3.22;;;;;;;2.06;70.39;99373.47;690778;28;69484;-64
2020/12/30 01:19:20;;;;;;;3.47;3.17;;;;;;;2.05;70.47;99379.78;692119;28;22374;-65
2020/12/30 01:19:41;;;;;;;3.15;2.95;;;;;;;2.05;70.51;99376.31;691556;28;46495;-64
2020/12/30 01:20:03;;;;;;;3.60;3.25;;;;;;;2.05;70.33;99377.13;691935;28;22426;-64
2020/12/30 01:20:24;;;;;;;3.60;3.15;;;;;;;2.05;70.40;99382.44;691648;28;44375;-64
2020/12/30 01:20:46;;;;;;;3.35;2.92;;;;;;;2.04;70.51;99372.81;692437;28;21474;-64
2020/12/30 01:21:07;;;;;;;3.17;2.88;;;;;;;2.02;70.42;99366.78;691565;28;45295;-64
2020/12/30 01:21:28;;;;;;;3.10;2.83;;;;;;;2.02;70.55;99376.59;692664;28;6601;-64
2020/12/30 01:21:51;;;;;;;3.42;3.22;;;;;;;2.01;70.53;99374.94;692449;28;19358;-64
2020/12/30 01:22:13;;;;;;;3.78;3.40;;;;;;;2.02;70.45;99374.78;690593;28;69431;-63
2020/12/30 01:22:34;;;;;;;3.42;3.13;;;;;;;2.02;70.51;99376.59;691708;28;45634;-63
2020/12/30 01:22:55;;;;;;;3.58;3.20;;;;;;;2.01;70.61;99375.78;692060;28;21512;-65
2020/12/30 01:23:17;;;;;;;4.00;3.25;;;;;;;2.01;70.74;99378.44;692064;28;23507;-64
2020/12/30 01:23:38;;;;;;;3.75;3.20;;;;;;;2.00;70.58;99373.28;690510;28;45291;-64
2020/12/30 01:23:59;;;;;;;3.42;3.13;;;;;;;2.00;70.59;99383.94;691921;28;23021;-64
2020/12/30 01:24:21;;;;;;;3.58;3.28;;;;;;;1.98;70.60;99376.09;692373;28;23390;-64
2020/12/30 01:24:42;;;;;;;3.63;3.28;;;;;;;1.99;70.62;99380.41;691517;28;46300;-64
2020/12/30 01:25:03;;;;;;;3.50;3.20;;;;;;;2.00;70.61;99373.28;692151;28;22387;-64
2020/12/30 01:25:25;;;;;;;3.30;3.05;;;;;;;2.01;70.63;99381.09;692476;28;22472;-64
2020/12/30 01:25:54;;;;;;;3.58;3.28;;;;;;;2.01;70.65;99381.09;692578;28;20515;-63
2020/12/30 01:26:15;;;;;;;3.85;3.45;;;;;;;1.99;70.63;99377.75;687561;28;137338;-64
2020/12/30 01:26:36;;;;;;;3.53;3.25;;;;;;;1.97;70.63;99375.28;692536;28;22043;-64
2020/12/30 01:26:58;;;;;;;3.50;3.30;;;;;;;1.97;70.57;99375.28;691513;28;46326;-64
2020/12/30 01:27:19;;;;;;;3.65;3.33;;;;;;;1.98;70.66;99376.09;692082;28;23489;-64
2020/12/30 01:27:41;;;;;;;4.53;3.50;;;;;;;1.97;70.71;99371.75;690918;28;21582;-64
2020/12/30 01:28:02;;;;;;;3.30;3.00;;;;;;;1.97;70.60;99377.06;690044;28;44395;-64
2020/12/30 01:28:23;;;;;;;3.35;3.15;;;;;;;1.98;70.72;99373.44;690694;28;22478;-64
2020/12/30 01:28:45;;;;;;;3.55;3.25;;;;;;;1.99;70.76;99375.09;690741;28;21440;-63
2020/12/30 01:29:06;;;;;;;3.75;3.40;;;;;;;1.97;70.80;99372.59;689880;28;45246;-63
2020/12/30 01:29:28;;;;;;;3.50;3.20;;;;;;;1.98;70.80;99373.44;691270;28;20238;-64
2020/12/30 01:29:49;;;;;;;3.28;3.08;;;;;;;2.00;70.74;99379.44;690232;28;45092;-64
2020/12/30 01:30:11;;;;;;;3.25;3.00;;;;;;;2.00;70.71;99375.94;690460;28;22448;-64
2020/12/30 01:30:32;;;;;;;3.45;3.08;;;;;;;2.00;70.82;99370.63;689390;28;45095;-64
2020/12/30 01:30:53;;;;;;;3.05;2.85;;;;;;;1.99;70.77;99377.75;689964;28;22422;-62
2020/12/30 01:31:14;;;;;;;3.17;2.97;;;;;;;2.00;70.67;99378.59;690728;28;22686;-64
2020/12/30 01:31:36;;;;;;;3.28;3.08;;;;;;;1.97;70.68;99380.59;691246;28;1201;-64
2020/12/30 01:31:58;;;;;;;3.42;3.13;;;;;;;1.96;70.68;99372.75;690277;28;45353;-64
2020/12/30 01:32:19;;;;;;;3.25;3.05;;;;;;;1.95;70.71;99385.22;690429;28;44476;-65
2020/12/30 01:32:40;;;;;;;3.28;3.08;;;;;;;1.94;70.76;99380.91;690397;28;22291;-63
2020/12/30 01:33:02;;;;;;;3.50;3.20;;;;;;;1.95;70.74;99382.56;689596;28;46354;-64
2020/12/30 01:33:23;;;;;;;3.20;3.00;;;;;;;1.96;70.61;99384.25;690558;28;23528;-64
2020/12/30 01:33:44;;;;;;;3.20;3.00;;;;;;;1.96;70.79;99383.41;690936;28;21562;-62
2020/12/30 01:34:06;;;;;;;3.47;3.13;;;;;;;1.96;70.81;99378.91;690201;28;46305;-64
2020/12/30 01:34:27;;;;;;;4.20;3.35;;;;;;;1.96;70.72;99384.25;691461;28;22439;-64
2020/12/30 01:34:49;;;;;;;3.20;2.90;;;;;;;1.97;70.84;99380.59;690830;28;46348;-63
2020/12/30 01:35:11;;;;;;;3.35;3.10;;;;;;;2.00;70.88;99389.25;690798;28;22150;-64
2020/12/30 01:35:32;;;;;;;3.50;3.17;;;;;;;2.01;70.84;99381.09;690552;28;41237;-64
2020/12/30 01:35:53;;;;;;;3.50;3.05;;;;;;;2.02;70.79;99384.59;691734;28;23523;-64
2020/12/30 01:36:14;;;;;;;4.05;3.22;;;;;;;2.02;70.73;99384.59;691168;28;21314;-62
2020/12/30 01:36:37;;;;;;;3.50;3.08;;;;;;;2.02;70.77;99396.06;690949;28;46323;-64
2020/12/30 01:36:59;;;;;;;3.47;3.17;;;;;;;2.02;70.65;99384.59;690952;28;45516;-64
2020/12/30 01:37:20;;;;;;;2.92;2.72;;;;;;;2.02;70.66;99392.59;690211;28;46298;-64
2020/12/30 01:37:41;;;;;;;3.05;2.85;;;;;;;2.03;70.93;99386.28;691133;28;22384;-64
2020/12/30 01:38:03;;;;;;;3.22;2.92;;;;;;;2.02;70.63;99387.25;690710;28;44342;-64
2020/12/30 01:38:24;;;;;;;2.90;2.70;;;;;;;2.01;70.70;99386.44;691619;28;23128;-65
2020/12/30 01:38:46;;;;;;;2.88;2.78;;;;;;;2.01;70.76;99389.09;691671;28;21356;-64
2020/12/30 01:39:08;;;;;;;3.20;2.95;;;;;;;2.02;70.70;99387.25;690633;28;42343;-64
2020/12/30 01:39:29;;;;;;;3.67;3.35;;;;;;;2.02;70.71;99393.41;690221;28;44370;-64
2020/12/30 01:39:50;;;;;;;3.60;3.30;;;;;;;2.02;70.61;99389.94;691202;28;22378;-64
2020/12/30 01:40:12;;;;;;;3.20;2.90;;;;;;;2.03;70.76;99384.44;690741;28;23350;-64
2020/12/30 01:40:33;;;;;;;2.88;2.67;;;;;;;2.04;70.71;99385.28;691493;28;23446;-63
2020/12/30 01:40:54;;;;;;;3.00;2.80;;;;;;;2.05;70.69;99387.78;692327;28;889;-64
2020/12/30 01:41:16;;;;;;;2.97;2.72;;;;;;;2.05;70.74;99387.78;692303;28;850;-64
2020/12/30 01:41:38;;;;;;;4.00;3.22;;;;;;;2.05;70.69;99379.78;691934;28;8350;-64
2020/12/30 01:41:59;;;;;;;3.30;3.10;;;;;;;2.05;70.68;99390.44;691873;28;1020;-64
2020/12/30 01:42:20;;;;;;;3.10;2.90;;;;;;;2.05;70.70;99382.44;690452;28;45350;-64
2020/12/30 01:42:44;;;;;;;3.05;2.85;;;;;;;2.05;70.68;99378.97;691433;28;22329;-64
2020/12/30 01:43:06;;;;;;;3.30;3.00;;;;;;;2.07;70.65;99379.63;689485;28;67494;-63
2020/12/30 01:43:27;;;;;;;2.85;2.65;;;;;;;2.08;70.60;99378.66;690689;28;46349;-64
2020/12/30 01:43:59;;;;;;;2.80;2.60;;;;;;;2.06;70.59;99377.97;690718;28;46371;-63
2020/12/30 01:44:21;;;;;;;2.70;2.50;;;;;;;2.06;70.61;99375.31;687796;28;119987;-64
2020/12/30 01:44:42;;;;;;;3.20;2.90;;;;;;;2.04;70.54;99385.28;691613;28;24625;-64
2020/12/30 01:45:03;;;;;;;3.20;3.00;;;;;;;2.06;70.57;99378.81;690437;28;46333;-64
2020/12/30 01:45:25;;;;;;;3.20;3.00;;;;;;;2.06;70.57;99386.78;691549;28;22143;-63
2020/12/30 01:45:46;;;;;;;3.00;2.80;;;;;;;2.05;70.51;99382.44;690763;28;23509;-64
2020/12/30 01:46:07;;;;;;;3.08;2.80;;;;;;;2.06;70.62;99383.31;689941;28;45302;-64
2020/12/30 01:46:35;;;;;;;3.20;2.90;;;;;;;2.04;70.53;99377.28;691449;28;22270;-64
2020/12/30 01:46:57;;;;;;;3.50;3.10;;;;;;;2.03;70.53;99381.78;686583;28;160879;-65